Latest Weather Observations for Kalgoorlie-Boulder

IDW60801

Issued at 6:35 pm WST Wednesday 27 August 2014 (issued every 30 minutes, with the page automatically refreshed every 10 minutes)

About weather observations | Map of weather stations | Latest weather observations for WA | Other Formats
Station Details ID: 012038 Name: KALGOORLIE-BOULDER AIRPORT Lat: -30.78 Lon: 121.45 Height: 365.3 m
Data from the previous 72 hours. | See also: Recent months at Kalgoorlie-Boulder
Date/Time
WST
Temp
°C
App
Temp
°C
Dew
Point
Rel
Hum
%
Delta-T
°C
Wind Press
QNH
hPa
Press
MSL
hPa
Rain
since 9 am
mm
Dir
 
Spd
km/h
Gust
km/h
Spd
kts
Gust
kts
27/06:30pm 22.5 18.3 -4.2 16 11.3 NNE 9 11 5 6 1018.9 - 0.0
27/06:00pm 23.9 20.0 -4.5 15 12.1 NNE 7 11 4 6 1018.8 1018.7 0.0
27/05:30pm 25.1 20.2 -7.0 11 13.2 N 11 13 6 7 1018.8 - 0.0
27/05:00pm 26.6 20.8 -8.9 9 14.3 NNE 15 20 8 11 1018.7 - 0.0
27/04:30pm 28.0 21.7 -9.9 7 15.2 N 17 24 9 13 1018.6 - 0.0
27/04:00pm 28.7 21.7 -11.7 6 15.8 N 20 32 11 17 1018.6 - 0.0
27/03:30pm 29.2 23.1 -3.8 11 14.9 N 19 26 10 14 1018.6 - 0.0
27/03:00pm 28.1 23.1 -1.1 15 13.7 N 15 22 8 12 1018.9 1018.8 0.0
27/02:30pm 28.4 22.3 -2.1 13 14.1 NNW 20 28 11 15 1019.1 - 0.0
27/02:00pm 27.2 22.1 0.5 17 12.8 N 17 22 9 12 1019.4 - 0.0
27/01:30pm 26.5 22.5 2.8 21 11.8 NNE 13 24 7 13 1019.7 - 0.0
27/01:00pm 25.1 21.4 4.7 26 10.4 NNE 13 22 7 12 1020.1 - 0.0
27/12:30pm 24.4 20.7 6.5 31 9.4 N 15 22 8 12 1020.8 - 0.0
27/12:00pm 23.1 19.6 7.1 35 8.4 NNE 15 22 8 12 1021.4 1021.4 0.0
27/11:30am 22.4 19.1 7.9 39 7.7 ENE 15 22 8 12 1021.8 - 0.0
27/10:30am 19.7 16.6 9.0 50 5.7 E 15 20 8 11 1023.0 - 0.0
27/10:00am 18.4 15.4 9.4 55 4.8 ENE 15 22 8 12 1023.4 - 0.0
27/09:30am 17.6 14.3 9.5 59 4.3 ENE 17 22 9 12 1023.5 - 0.0
27/09:00am 16.8 13.6 9.9 64 3.7 ENE 17 20 9 11 1023.8 1023.8 0.0
27/08:30am 15.6 12.4 9.9 69 3.0 ENE 17 22 9 12 1023.8 - 0.0
27/08:00am 14.3 10.1 9.9 75 2.3 E 22 32 12 17 1023.6 - 0.0
27/07:30am 13.7 9.2 10.1 79 1.9 E 24 33 13 18 1023.5 - 0.0
27/07:00am 12.9 8.4 10.0 82 1.5 E 24 33 13 18 1023.2 - 0.0
27/06:30am 12.6 9.0 10.5 87 1.1 E 20 28 11 15 1023.1 - 0.0
27/06:00am 12.4 9.8 10.7 89 0.9 E 15 20 8 11 1022.9 1022.9 0.0
27/05:30am 10.9 8.8 9.9 93 0.5 ESE 11 15 6 8 1022.8 - 0.0
27/05:00am 11.0 8.5 9.8 92 0.6 ESE 13 15 7 8 1022.6 - 0.0
27/04:30am 11.8 9.9 10.5 92 0.7 ESE 11 13 6 7 1022.7 - 0.0
27/04:00am 12.7 10.5 10.8 88 1.0 ESE 13 20 7 11 1022.7 - 0.0
27/03:47am 12.9 9.4 11.0 88 1.0 ESE 20 28 11 15 1022.5 - 0.0
27/03:30am 13.4 10.2 11.2 86 1.2 ESE 19 24 10 13 1022.6 - 0.0
27/03:27am 13.3 10.1 11.3 88 1.1 ESE 19 24 10 13 1022.6 - 0.0
27/03:00am 13.0 9.8 11.3 89 0.9 SE 19 24 10 13 1022.7 1022.7 0.0
27/02:30am 13.1 10.3 11.2 88 1.0 SE 17 22 9 12 1022.8 - 0.0
27/02:00am 13.2 11.1 11.1 87 1.1 SE 13 19 7 10 1023.0 - 0.0
27/01:30am 13.5 10.7 11.3 86 1.2 SE 17 22 9 12 1023.1 - 0.0
27/01:00am 13.8 11.0 11.4 85 1.3 SE 17 24 9 13 1023.1 - 0.0
27/12:30am 13.9 11.4 11.1 83 1.5 SE 15 20 8 11 1023.2 - 0.0
27/12:00am 14.5 12.0 11.2 80 1.8 SSE 15 20 8 11 1023.4 1023.3 0.0
 
Date/Time
WST
Temp
°C
App
Temp
°C
Dew
Point
Rel
Hum
%
Delta-T
°C
Wind Press
QNH
hPa
Press
MSL
hPa
Rain
since 9 am
mm
Dir
 
Spd
km/h
Gust
km/h
Spd
kts
Gust
kts
26/11:30pm 15.0 12.5 11.1 77 2.1 SSE 15 26 8 14 1023.2 - 0.0
26/11:00pm 15.8 12.8 10.8 72 2.7 SSE 17 26 9 14 1023.0 - 0.0
26/10:30pm 16.6 13.0 9.8 64 3.6 SE 19 28 10 15 1023.0 - 0.0
26/10:00pm 17.3 13.5 6.0 47 5.6 SSE 15 22 8 12 1022.6 - 0.0
26/09:30pm 16.0 12.9 1.5 37 6.5 SSE 7 9 4 5 1022.4 - 0.0
26/09:00pm 16.8 12.6 1.5 35 6.9 SW 13 15 7 8 1022.2 1022.2 0.0
26/08:30pm 17.4 13.1 1.2 33 7.3 SSW 13 17 7 9 1022.0 - 0.0
26/08:00pm 17.9 13.6 1.0 32 7.6 SSW 13 15 7 8 1021.9 - 0.0
26/07:30pm 18.9 14.9 0.7 29 8.2 S 11 13 6 7 1021.6 - 0.0
26/07:00pm 19.1 14.8 0.8 29 8.3 SSW 13 15 7 8 1021.3 - 0.0
26/06:30pm 19.9 15.9 0.8 28 8.7 SSW 11 13 6 7 1021.2 - 0.0
26/06:00pm 21.5 17.9 0.7 25 9.6 SSW 9 9 5 5 1021.1 1021.0 0.0
26/05:30pm 22.5 18.9 0.4 23 10.2 SSW 9 11 5 6 1021.0 - 0.0
26/05:00pm 24.8 20.2 -1.3 18 11.9 SSW 13 19 7 10 1020.8 - 0.0
26/04:30pm 25.5 20.1 -1.4 17 12.3 SSW 17 22 9 12 1020.7 - 0.0
26/04:00pm 25.6 20.6 -1.2 17 12.3 S 15 19 8 10 1020.6 - 0.0
26/03:30pm 26.6 20.9 -0.9 16 12.8 SW 19 24 10 13 1020.6 - 0.0
26/03:00pm 25.9 21.1 -2.2 15 12.7 S 13 24 7 13 1020.5 1020.4 0.0
26/02:30pm 25.9 21.6 -1.7 16 12.6 S 11 17 6 9 1020.6 - 0.0
26/02:00pm 26.2 20.9 -3.3 14 13.1 WSW 15 20 8 11 1020.8 - 0.0
26/01:30pm 26.3 21.9 -2.6 15 13.0 S 11 19 6 10 1021.0 - 0.0
26/01:00pm 26.7 21.4 -3.4 13 13.4 SSE 15 20 8 11 1021.4 - 0.0
26/12:30pm 25.8 20.7 -5.0 12 13.2 SSE 13 19 7 10 1021.7 - 0.0
26/12:00pm 25.6 19.5 -4.0 14 12.9 SW 19 26 10 14 1022.1 1022.1 0.0
26/11:30am 25.4 20.5 -3.5 14 12.7 S 13 19 7 10 1022.2 - 0.0
26/11:00am 24.4 20.1 -1.9 17 11.8 S 11 19 6 10 1022.6 - 0.0
26/10:30am 24.4 19.8 -3.8 15 12.3 S 11 22 6 12 1022.9 - 0.0
26/10:00am 23.3 20.8 1.3 23 10.4 ENE 4 9 2 5 1023.2 - 0.0
26/09:30am 22.1 19.9 3.1 28 9.2 SE 4 9 2 5 1023.4 - 0.0
26/09:00am 20.2 18.0 3.3 32 8.1 SW 4 7 2 4 1023.4 1023.3 0.0
26/08:30am 17.7 14.7 1.7 34 7.3 WSW 7 11 4 6 1023.4 - 0.0
26/08:00am 16.2 14.3 2.7 40 6.2 SE 2 7 1 4 1023.0 - 0.0
26/07:30am 14.1 12.5 2.5 45 5.2 CALM 0 0 0 0 1022.9 - 0.0
26/07:00am 10.6 9.1 2.9 59 3.4 CALM 0 0 0 0 1022.5 - 0.0
26/06:30am 9.9 8.3 2.2 59 3.3 CALM 0 0 0 0 1022.2 - 0.0
26/06:00am 10.7 7.4 2.2 55 3.7 WSW 9 13 5 7 1022.1 1022.1 0.0
26/05:30am 11.0 7.6 2.0 54 3.9 WSW 9 11 5 6 1021.9 - 0.0
26/05:00am 11.6 8.7 1.3 49 4.4 WSW 6 7 3 4 1021.8 - 0.0
26/04:30am 12.3 7.9 0.5 44 5.0 SW 13 15 7 8 1021.7 - 0.0
26/04:00am 11.7 9.9 1.5 49 4.4 CALM 0 2 0 1 1021.3 - 0.0
26/03:30am 12.2 9.2 1.0 46 4.8 WNW 6 11 3 6 1021.2 - 0.0
26/03:00am 12.0 9.3 0.0 43 5.0 NNE 4 6 2 3 1021.3 1021.3 0.0
26/02:30am 12.7 10.8 0.8 44 5.1 CALM 0 0 0 0 1021.3 - 0.0
26/02:00am 12.1 9.3 -0.5 42 5.2 SE 4 7 2 4 1021.5 - 0.0
26/01:30am 14.2 12.1 -0.5 36 6.2 CALM 0 0 0 0 1021.6 - 0.0
26/01:00am 17.2 12.6 -4.2 23 8.6 WNW 11 13 6 7 1021.7 - 0.0
26/12:30am 15.6 10.4 -2.8 28 7.5 WSW 15 24 8 13 1021.5 - 0.0
26/12:00am 17.9 13.6 -4.5 21 9.0 N 9 11 5 6 1021.3 1021.3 0.0
 
Date/Time
WST
Temp
°C
App
Temp
°C
Dew
Point
Rel
Hum
%
Delta-T
°C
Wind Press
QNH
hPa
Press
MSL
hPa
Rain
since 9 am
mm
Dir
 
Spd
km/h
Gust
km/h
Spd
kts
Gust
kts
25/11:30pm 17.9 13.7 -3.6 23 8.8 N 9 11 5 6 1021.5 - 0.0
25/11:00pm 19.0 14.6 -5.7 18 9.8 N 9 11 5 6 1021.6 - 0.0
25/10:30pm 18.7 14.5 -4.0 21 9.3 NNW 9 11 5 6 1021.6 - 0.0
25/10:00pm 19.5 15.1 -5.5 18 10.0 N 9 11 5 6 1021.7 - 0.0
25/09:30pm 20.0 15.7 -5.2 18 10.2 N 9 11 5 6 1021.9 - 0.0
25/09:00pm 19.4 14.8 -4.3 20 9.7 N 11 13 6 7 1022.2 1022.2 0.0
25/08:30pm 19.4 15.3 -2.9 22 9.4 N 9 11 5 6 1022.3 - 0.0
25/08:00pm 21.1 16.7 -5.4 16 10.8 NNW 9 11 5 6 1022.4 - 0.0
25/07:30pm 22.1 16.9 -6.4 14 11.5 NNW 13 15 7 8 1022.4 - 0.0
25/07:00pm 22.3 18.1 -4.3 16 11.2 NNW 9 11 5 6 1021.9 - 0.0
25/06:30pm 23.5 19.1 -6.2 13 12.2 NNW 9 11 5 6 1021.5 - 0.0
25/06:00pm 24.7 20.8 -4.9 13 12.6 N 7 9 4 5 1021.3 1021.3 0.0
25/05:30pm 26.0 22.0 -6.0 11 13.5 N 7 9 4 5 1020.9 - 0.0
25/05:00pm 28.0 23.3 -9.3 8 15.1 NNW 9 15 5 8 1020.7 - 0.0
25/04:30pm 28.9 22.0 -13.5 5 16.1 NNW 19 33 10 18 1020.6 - 0.0
25/04:00pm 29.3 22.2 -13.3 5 16.3 NNW 20 28 11 15 1020.6 - 0.0
25/03:30pm 29.5 23.1 -12.3 6 16.3 NNW 17 28 9 15 1020.7 - 0.0
25/03:00pm 29.6 21.0 -12.7 5 16.4 NNW 28 33 15 18 1021.0 1020.9 0.0
25/02:30pm 29.7 23.0 -8.3 8 15.9 WNW 20 30 11 16 1021.0 - 0.0
25/02:00pm 29.7 23.7 -6.9 9 15.7 WNW 17 24 9 13 1021.2 - 0.0
25/01:30pm 29.3 24.8 -3.6 11 14.9 N 11 17 6 9 1021.5 - 0.0
25/01:00pm 28.9 22.6 -5.4 10 15.0 NW 19 32 10 17 1021.9 - 0.0
25/12:30pm 28.5 22.8 -3.9 12 14.5 N 17 30 9 16 1022.4 - 0.0
25/12:00pm 27.9 22.3 -2.6 13 13.9 N 17 33 9 18 1022.9 1022.9 0.0
25/11:30am 27.0 23.7 0.4 17 12.7 SSE 7 11 4 6 1023.5 - 0.0
25/11:00am 26.9 23.2 0.1 17 12.8 NE 9 11 5 6 1024.0 - 0.0
25/10:30am 26.1 22.1 0.7 19 12.2 ENE 11 15 6 8 1024.3 - 0.0
25/10:00am 25.3 21.9 2.0 22 11.4 NE 9 13 5 7 1024.5 - 0.0
25/09:30am 23.4 19.6 1.8 24 10.3 NNE 11 17 6 9 1024.6 - 0.0
25/09:00am 22.2 18.9 2.3 27 9.5 NNE 9 13 5 7 1024.6 1024.6 0.0
25/08:30am 19.3 16.2 3.4 35 7.6 N 9 11 5 6 1024.6 - 0.0
25/08:00am 18.3 15.5 3.3 37 7.1 N 7 9 4 5 1024.6 - 0.0
25/07:30am 15.5 13.0 4.5 48 5.2 NNW 7 9 4 5 1024.3 - 0.0
25/07:00am 10.9 8.9 6.3 73 2.2 N 6 6 3 3 1023.8 - 0.0
25/06:30am 10.5 7.9 4.3 65 2.8 NNW 7 9 4 5 1023.7 - 0.0
25/06:00am 10.2 7.9 5.0 70 2.4 NNW 6 7 3 4 1023.7 1023.7 0.0
25/05:30am 10.1 8.9 4.6 68 2.5 CALM 0 0 0 0 1023.5 - 0.0
25/05:00am 11.4 10.1 4.2 61 3.3 CALM 0 0 0 0 1023.4 - 0.0
25/04:30am 10.9 9.7 4.8 66 2.8 CALM 0 0 0 0 1023.1 - 0.0
25/04:00am 11.9 10.6 4.3 59 3.5 CALM 0 0 0 0 1022.8 - 0.0
25/03:30am 12.2 9.6 4.4 59 3.6 S 7 9 4 5 1022.6 - 0.0
25/03:00am 11.3 8.8 4.6 63 3.1 SSW 7 9 4 5 1022.9 1022.9 0.0
25/02:30am 12.1 10.4 4.0 57 3.7 S 2 6 1 3 1023.0 - 0.0
25/02:00am 12.8 11.6 4.4 56 3.9 CALM 0 0 0 0 1023.1 - 0.0
25/01:30am 13.1 11.8 4.2 54 4.1 CALM 0 0 0 0 1023.4 - 0.0
25/01:00am 13.4 12.2 4.4 54 4.2 CALM 0 0 0 0 1023.4 - 0.0
25/12:30am 13.5 12.3 4.5 54 4.2 CALM 0 2 0 1 1023.6 - 0.0
25/12:00am 14.3 11.9 4.2 50 4.7 WNW 6 7 3 4 1023.6 1023.5 0.0
 
Date/Time
WST
Temp
°C
App
Temp
°C
Dew
Point
Rel
Hum
%
Delta-T
°C
Wind Press
QNH
hPa
Press
MSL
hPa
Rain
since 9 am
mm
Dir
 
Spd
km/h
Gust
km/h
Spd
kts
Gust
kts
24/11:30pm 15.6 12.2 3.9 45 5.5 WSW 11 17 6 9 1023.4 - 0.0
24/11:00pm 15.4 14.4 5.7 52 4.7 CALM 0 0 0 0 1022.7 - 0.0
24/10:30pm 15.8 14.6 4.4 46 5.4 CALM 0 6 0 3 1022.9 - 0.0
24/10:00pm 15.5 14.5 5.6 51 4.8 CALM 0 0 0 0 1023.0 - 0.0
24/09:30pm 16.9 15.5 3.5 41 6.3 CALM 0 0 0 0 1023.0 - 0.0
24/09:00pm 18.0 15.8 5.1 42 6.3 NNW 6 6 3 3 1022.9 1022.9 0.0
24/08:30pm 17.8 16.7 5.1 43 6.2 CALM 0 0 0 0 1022.7 - 0.0
24/08:00pm 18.4 17.3 5.2 42 6.5 CALM 0 0 0 0 1022.5 - 0.0
24/07:30pm 19.0 17.9 5.0 39 6.9 CALM 0 2 0 1 1022.3 - 0.0
24/07:00pm 19.8 18.2 4.5 36 7.5 WSW 2 6 1 3 1022.2 - 0.0

Other Formats:

Comma delimited format used in spreadsheet applications
http://www.bom.gov.au/fwo/IDW60801/IDW60801.94637.axf

JavaScript Object Notation format (JSON) in row-major order
http://www.bom.gov.au/fwo/IDW60801/IDW60801.94637.json